This is the latest recevied weather packets stored in our database for station/object N9WHM. If no packets are shown the sender has not sent any weather packets the latest 10 day(s).
| Time | Temp. | Humidity | Pressure | Rain* | Wind** | Luminosity | Snow |
|---|---|---|---|---|---|---|---|
| 1777652235 | 10° C | 57% | 1019.2 hPa | 0 mm | - | 220 W/m² | - |
| 1777651932 | 10.56° C | 58% | 1019.5 hPa | 0 mm | - | 183 W/m² | - |
| 1777651628 | 10.56° C | 58% | 1019.2 hPa | 0 mm | - | 696 W/m² | - |
| 1777651326 | 11.11° C | 57% | 1019 hPa | 0 mm | - | 688 W/m² | - |
| 1777651023 | 10.56° C | 58% | 1018.9 hPa | 0 mm | - | 727 W/m² | - |
| 1777650720 | 10.56° C | 59% | 1019.1 hPa | 0 mm | - | 640 W/m² | - |
| 1777650417 | 10.56° C | 60% | 1019.2 hPa | 0 mm | - | 646 W/m² | - |
| 1777650114 | 9.44° C | 64% | 1019.1 hPa | 0 mm | - | 551 W/m² | - |
| 1777649811 | 9.44° C | 64% | 1019.2 hPa | 0 mm | - | 133 W/m² | - |
| 1777649508 | 9.44° C | 64% | 1019.1 hPa | 0 mm | - | 153 W/m² | - |
| 1777649204 | 9.44° C | 65% | 1018.9 hPa | 0 mm | - | 162 W/m² | - |
| 1777648901 | 10° C | 64% | 1018.8 hPa | 0 mm | - | 552 W/m² | - |
| 1777648296 | 9.44° C | 67% | 1018.9 hPa | 0 mm | - | 481 W/m² | - |
| 1777647992 | 9.44° C | 67% | 1019 hPa | 0 mm | - | 492 W/m² | - |
| 1777647688 | 9.44° C | 68% | 1019 hPa | 0 mm | - | 463 W/m² | - |
| 1777647384 | 9.44° C | 68% | 1018.9 hPa | 0 mm | - | 482 W/m² | - |
| 1777647082 | 8.89° C | 70% | 1018.9 hPa | 0 mm | - | 433 W/m² | - |
| 1777646778 | 8.89° C | 70% | 1018.8 hPa | 0 mm | - | 390 W/m² | - |
| 1777646478 | 8.33° C | 72% | 1018.9 hPa | 0 mm | - | 361 W/m² | - |
| 1777646175 | 8.33° C | 72% | 1018.8 hPa | 0 mm | - | 349 W/m² | - |
| 1777645872 | 8.33° C | 72% | 1019 hPa | 0 mm | - | 337 W/m² | - |
| 1777645569 | 8.33° C | 73% | 1018.9 hPa | 0 mm | - | 319 W/m² | - |
| 1777645265 | 7.78° C | 73% | 1018.9 hPa | 0 mm | - | 303 W/m² | - |
| 1777644961 | 7.78° C | 73% | 1018.8 hPa | 0 mm | - | 292 W/m² | - |
| 1777644659 | 7.78° C | 73% | 1018.8 hPa | 0 mm | - | 276 W/m² | - |
* Rain latest hour (hover to see other rain measurements)
** Current wind speed in m/s (hover to see current wind gust speed)